Blanchard, Michigan
Current Conditions -  °F | °C
As of 1:18 AM on Tuesday 21 Oct 2014 (Local Time) from KMOP Reporting Station
Overcast Overcast  
Wind Chill: 45°   Ceiling: 1500
Heat Index: 47°   Visibility: 10mi
Dew Point: 42°   Wind: 5mph
Humidity: 84%   Direction: 320°NW
Pressure: 29.92"   Gusts: NA
Location:  43.52°N, 85.08°W
Report Text: KMOP 210518Z AUTO 32004KT 10SM OVC015 08/06 A2992 RMK AO2 T00830058
Loading
Personal Weather Stations






























Interactive Weather Map
Tropical Storm Tracking
New forecast layout! Learn more

10-Day Weather Forecast

Advertisements
Track Severe Weather on mobile